KCHO

Charlottesville-Albemarle Airport

Charlottesville, Virginia, USA
KCHO 202329Z 2100/2124 01006KT P6SM SKC FM211000 VRB03KT P6SM FEW250
Issued Valid From Valid To
Apr-20 @ 23:29 UTC
(4 hours ago)
Apr-21 @ 00:00 UTC
(4 hours ago)
Apr-22 @ 00:00 UTC
(in 20 hours)
Apr-21 @ 00:00 to Apr-21 @ 10:00
KCHO 202329Z 2100/2124 01006KT P6SM SKC
Wind Visibility Clouds
10° at 6 knots Greater than 6 miles
  • Clear skies
From Apr-21 @ 10:00 to Apr-22 @ 00:00
FM211000 VRB03KT P6SM FEW250
Wind Visibility Clouds
Variable at 3 knots Greater than 6 miles
  • Few at 25,000' AGL
KCHO 202329Z 2100/2124 01006KT P6SM SKC FM211000 VRB03KT P6SM FEW250
Issued Apr-20 @ 23:29 UTC
(4 hours ago)
Valid From Apr-21 @ 00:00 UTC
(4 hours ago)
Valid To Apr-22 @ 00:00 UTC
(in 20 hours)
Apr-21 @ 00:00 - Apr-21 @ 10:00
Wind Visibility
10° at 6 knots Greater than 6 miles
Clouds
  • Clear skies
From Apr-21 @ 10:00 - Apr-22 @ 00:00
Wind Visibility
Variable at 3 knots Greater than 6 miles
Clouds
  • Few at 25,000' AGL